Time;durP1;ratioP1;P1;durP2;ratioP2;P2;SDS_P1;SDS_P2;PMS_P1;PMS_P2;Temp;Humidity;BMP_temperature;BMP_pressure;BME280_temperature;BME280_humidity;BME280_pressure;Samples;Min_cycle;Max_cycle;Signal;HPM_P1;HPM_P2
2021/06/13 00:01:08;;;;;;;9.30;8.50;;;19.00;99.90;;;;;;4943028;28;20201;-78
2021/06/13 00:03:35;;;;;;;8.87;8.17;;;19.00;99.90;;;;;;4946506;29;20230;-77
2021/06/13 00:06:01;;;;;;;10.37;9.47;;;19.00;99.90;;;;;;4950597;28;20267;-77
2021/06/13 00:08:28;;;;;;;9.80;8.90;;;18.90;99.90;;;;;;4946729;28;20280;-78
2021/06/13 00:10:56;;;;;;;9.70;8.80;;;18.90;99.90;;;;;;4944793;29;20205;-78
2021/06/13 00:13:23;;;;;;;9.50;8.70;;;18.90;99.90;;;;;;4949076;29;20196;-78
2021/06/13 00:15:50;;;;;;;10.03;9.23;;;18.90;99.90;;;;;;4948118;28;20198;-77
2021/06/13 00:18:16;;;;;;;9.33;8.57;;;18.90;99.90;;;;;;4941275;28;20228;-77
2021/06/13 00:20:43;;;;;;;9.70;8.90;;;18.80;99.90;;;;;;4935763;29;20576;-78
2021/06/13 00:23:09;;;;;;;9.57;8.77;;;18.80;99.90;;;;;;4943441;29;20221;-77
2021/06/13 00:25:36;;;;;;;9.33;8.53;;;18.80;99.90;;;;;;4936367;28;20205;-77
2021/06/13 00:28:05;;;;;;;9.37;8.60;;;18.80;99.90;;;;;;4934888;29;20590;-77
2021/06/13 00:30:31;;;;;;;10.13;9.10;;;18.80;99.90;;;;;;4943298;29;20205;-77
2021/06/13 00:32:57;;;;;;;10.00;9.20;;;18.80;99.90;;;;;;4935351;29;20200;-77
2021/06/13 00:35:24;;;;;;;9.50;8.57;;;18.80;99.90;;;;;;4944234;28;20201;-77
2021/06/13 00:37:52;;;;;;;9.57;8.77;;;18.70;99.90;;;;;;4940665;28;20222;-77
2021/06/13 00:40:21;;;;;;;9.73;8.83;;;18.70;99.90;;;;;;4947330;29;20197;-78
2021/06/13 00:42:48;;;;;;;9.30;8.50;;;18.70;99.90;;;;;;4942244;29;20213;-76
2021/06/13 00:45:16;;;;;;;10.70;9.70;;;18.70;99.90;;;;;;4935292;28;20701;-77
2021/06/13 00:47:42;;;;;;;10.47;9.33;;;18.60;99.90;;;;;;4943728;28;20219;-77
2021/06/13 00:50:12;;;;;;;10.70;9.67;;;18.70;99.90;;;;;;4944208;29;20195;-78
2021/06/13 00:52:39;;;;;;;11.00;10.10;;;18.70;99.90;;;;;;4943542;29;20684;-78
2021/06/13 00:55:06;;;;;;;9.83;9.03;;;18.60;99.90;;;;;;4942913;29;20199;-78
2021/06/13 00:57:33;;;;;;;10.13;9.23;;;18.60;99.90;;;;;;4938865;29;20226;-77
2021/06/13 01:00:00;;;;;;;10.17;9.27;;;18.60;99.90;;;;;;4935619;29;20228;-78
2021/06/13 01:02:27;;;;;;;9.90;9.00;;;18.50;99.90;;;;;;4935841;28;20223;-78
2021/06/13 01:04:54;;;;;;;10.23;9.33;;;18.50;99.90;;;;;;4945129;28;20194;-77
2021/06/13 01:07:27;;;;;;;10.57;9.20;;;18.50;99.90;;;;;;4944198;29;20286;-78
2021/06/13 01:09:59;;;;;;;9.67;8.77;;;18.50;99.90;;;;;;4943139;28;20217;-78
2021/06/13 01:12:28;;;;;;;10.20;9.30;;;18.50;99.90;;;;;;4943941;29;20202;-77
2021/06/13 01:15:04;;;;;;;10.37;9.47;;;18.50;99.90;;;;;;4940380;29;20199;-77
2021/06/13 01:17:39;;;;;;;10.47;9.50;;;18.50;99.90;;;;;;4929679;28;20231;-77
2021/06/13 01:20:16;;;;;;;10.13;9.13;;;18.40;99.90;;;;;;4946797;28;20706;-79
2021/06/13 01:23:02;;;;;;;10.03;9.10;;;18.40;99.90;;;;;;4933631;29;20311;-77
2021/06/13 01:25:38;;;;;;;9.80;9.00;;;18.40;99.90;;;;;;4938848;28;20216;-77
2021/06/13 01:28:28;;;;;;;9.57;8.77;;;18.40;99.90;;;;;;4938202;28;20315;-78
2021/06/13 01:30:59;;;;;;;9.63;8.77;;;18.40;99.90;;;;;;4954416;28;20210;-77
2021/06/13 01:33:27;;;;;;;10.27;9.47;;;18.30;99.90;;;;;;4941190;29;20587;-77
2021/06/13 01:35:55;;;;;;;10.40;9.40;;;18.30;99.90;;;;;;4940790;29;20685;-77
2021/06/13 01:38:23;;;;;;;10.00;9.10;;;18.30;99.90;;;;;;4938734;28;20253;-77
2021/06/13 01:40:52;;;;;;;9.90;9.00;;;18.20;99.90;;;;;;4937926;28;20286;-77
2021/06/13 01:43:23;;;;;;;9.83;8.90;;;18.20;99.90;;;;;;4939012;29;20657;-78
2021/06/13 01:45:54;;;;;;;9.83;9.03;;;18.20;99.90;;;;;;4935281;29;20204;-77
2021/06/13 01:48:24;;;;;;;9.93;8.97;;;18.20;99.90;;;;;;4942578;28;20766;-77
2021/06/13 01:50:53;;;;;;;10.63;9.67;;;18.20;99.90;;;;;;4944031;28;20807;-77
2021/06/13 01:53:20;;;;;;;10.00;9.10;;;18.20;99.90;;;;;;4944402;29;20202;-77
2021/06/13 01:55:49;;;;;;;10.53;9.43;;;18.20;99.90;;;;;;4938231;29;20241;-77
2021/06/13 01:58:20;;;;;;;11.00;9.90;;;18.20;99.90;;;;;;4940009;28;20296;-78
2021/06/13 02:00:59;;;;;;;10.23;9.17;;;18.10;99.90;;;;;;4933641;28;20201;-78
2021/06/13 02:03:31;;;;;;;10.03;9.23;;;18.10;99.90;;;;;;4941556;29;20632;-77
2021/06/13 02:06:20;;;;;;;10.33;9.30;;;18.10;99.90;;;;;;4941736;29;20302;-78
2021/06/13 02:08:48;;;;;;;10.33;9.53;;;18.10;99.90;;;;;;4918790;29;20233;-77
2021/06/13 02:11:21;;;;;;;9.87;8.90;;;18.00;99.90;;;;;;4938527;29;20202;-77
2021/06/13 02:13:48;;;;;;;9.90;9.10;;;18.00;99.90;;;;;;4946117;28;20202;-78
2021/06/13 02:16:20;;;;;;;10.17;9.27;;;18.00;99.90;;;;;;4945024;29;20202;-78
2021/06/13 02:18:49;;;;;;;11.07;9.97;;;18.00;99.90;;;;;;4940513;29;20745;-77
2021/06/13 02:21:18;;;;;;;10.27;9.27;;;17.90;99.90;;;;;;4934153;28;20258;-78
2021/06/13 02:23:45;;;;;;;10.03;9.03;;;18.00;99.90;;;;;;4949535;28;20225;-77
2021/06/13 02:26:14;;;;;;;9.53;8.63;;;17.90;99.90;;;;;;4941342;28;20208;-78
2021/06/13 02:28:45;;;;;;;10.37;9.20;;;17.90;99.90;;;;;;4942378;28;20246;-78
2021/06/13 02:31:13;;;;;;;9.13;8.33;;;17.90;99.90;;;;;;4934687;29;20856;-77
2021/06/13 02:33:43;;;;;;;9.10;8.40;;;17.80;99.90;;;;;;4938493;28;20187;-78
2021/06/13 02:36:13;;;;;;;9.63;8.77;;;17.80;99.90;;;;;;4945783;28;20206;-77
2021/06/13 02:38:56;;;;;;;10.40;9.47;;;17.70;99.90;;;;;;4927647;29;20233;-77
2021/06/13 02:41:23;;;;;;;10.73;9.70;;;17.60;99.90;;;;;;4949418;28;20211;-75
2021/06/13 02:43:50;;;;;;;10.30;9.30;;;17.50;99.90;;;;;;4933588;29;20192;-76
2021/06/13 02:46:18;;;;;;;9.93;9.07;;;17.40;99.90;;;;;;4926995;29;20585;-76
2021/06/13 02:48:45;;;;;;;10.67;9.77;;;17.40;99.90;;;;;;4940544;29;20220;-78
2021/06/13 02:51:17;;;;;;;9.67;8.87;;;17.30;99.90;;;;;;4948837;28;20748;-77
2021/06/13 02:53:47;;;;;;;9.83;8.93;;;17.30;99.90;;;;;;4925796;29;20711;-77
2021/06/13 02:56:26;;;;;;;10.30;9.40;;;17.20;99.90;;;;;;4940672;28;20238;-78
2021/06/13 02:59:07;;;;;;;10.17;9.37;;;17.20;99.90;;;;;;4914452;29;20295;-77
2021/06/13 03:01:34;;;;;;;9.93;9.07;;;17.20;99.90;;;;;;4936254;29;20639;-77
2021/06/13 03:04:04;;;;;;;10.93;10.00;;;17.20;99.90;;;;;;4933125;28;20191;-78
2021/06/13 03:06:40;;;;;;;10.60;9.70;;;17.10;99.90;;;;;;4929154;29;20278;-77
2021/06/13 03:09:09;;;;;;;9.90;9.10;;;17.10;99.90;;;;;;4939973;29;20265;-77
2021/06/13 03:11:35;;;;;;;10.10;9.30;;;17.10;99.90;;;;;;4945230;28;20202;-77
2021/06/13 03:14:03;;;;;;;10.50;9.40;;;17.20;99.90;;;;;;4936364;29;20216;-76
2021/06/13 03:16:32;;;;;;;10.20;9.20;;;17.10;99.90;;;;;;4943224;28;20689;-78
2021/06/13 03:18:59;;;;;;;10.07;8.90;;;17.20;99.90;;;;;;4944126;28;20222;-77
2021/06/13 03:21:29;;;;;;;9.40;8.60;;;17.20;99.90;;;;;;4941908;28;20211;-77
2021/06/13 03:23:59;;;;;;;10.97;10.07;;;17.20;99.90;;;;;;4939771;28;20210;-76
2021/06/13 03:26:27;;;;;;;11.10;10.00;;;17.20;99.90;;;;;;4937696;29;20265;-77
2021/06/13 03:28:56;;;;;;;10.50;9.60;;;17.20;99.90;;;;;;4940767;29;20221;-77
2021/06/13 03:31:23;;;;;;;10.30;9.30;;;17.20;99.90;;;;;;4937562;28;20683;-77
2021/06/13 03:33:52;;;;;;;11.23;10.27;;;17.10;99.90;;;;;;4944812;28;20744;-77
2021/06/13 03:36:20;;;;;;;10.60;9.70;;;17.10;99.90;;;;;;4939248;28;20898;-77
2021/06/13 03:38:50;;;;;;;10.57;9.53;;;17.10;99.90;;;;;;4932864;29;20226;-76
2021/06/13 03:41:22;;;;;;;10.40;9.37;;;17.00;99.90;;;;;;4935210;29;20236;-77
2021/06/13 03:43:50;;;;;;;10.20;9.37;;;17.00;99.90;;;;;;4933963;29;20257;-78
2021/06/13 03:46:18;;;;;;;10.13;9.23;;;17.00;99.90;;;;;;4934140;29;20217;-77
2021/06/13 03:48:45;;;;;;;10.50;9.60;;;17.00;99.90;;;;;;4925155;29;20222;-77
2021/06/13 03:51:13;;;;;;;10.20;9.40;;;17.00;99.90;;;;;;4922191;29;20214;-78
2021/06/13 03:53:47;;;;;;;10.70;9.80;;;17.00;99.90;;;;;;4929819;29;20330;-77
2021/06/13 03:56:17;;;;;;;10.53;9.60;;;17.00;99.90;;;;;;4929232;29;20602;-77
2021/06/13 03:58:47;;;;;;;11.47;9.93;;;17.10;99.90;;;;;;4941966;28;20215;-78
2021/06/13 04:01:15;;;;;;;11.23;10.33;;;17.00;99.90;;;;;;4926493;29;20202;-78
2021/06/13 04:03:46;;;;;;;9.67;8.87;;;17.20;99.90;;;;;;4930519;28;20202;-79
2021/06/13 04:06:14;;;;;;;10.30;9.33;;;17.20;99.90;;;;;;4938142;28;20192;-77
2021/06/13 04:08:41;;;;;;;9.60;8.80;;;17.20;99.90;;;;;;4949142;28;20226;-77
2021/06/13 04:11:11;;;;;;;10.33;9.37;;;17.30;99.90;;;;;;4944398;28;20591;-77
2021/06/13 04:13:40;;;;;;;9.60;8.80;;;17.30;99.90;;;;;;4936845;28;20220;-80
2021/06/13 04:16:09;;;;;;;10.03;9.17;;;17.50;99.90;;;;;;4951013;28;20270;-77
2021/06/13 04:18:37;;;;;;;9.57;8.67;;;17.50;99.90;;;;;;4960234;28;20231;-77
2021/06/13 04:21:05;;;;;;;9.43;8.63;;;17.60;99.90;;;;;;4955640;29;20201;-78
2021/06/13 04:23:32;;;;;;;9.47;8.57;;;17.60;99.90;;;;;;4960947;29;20214;-77
2021/06/13 04:25:59;;;;;;;10.07;9.07;;;17.60;99.90;;;;;;4952711;29;20199;-78
2021/06/13 04:28:29;;;;;;;9.60;8.80;;;17.60;99.90;;;;;;4957121;28;20264;-81
2021/06/13 04:31:13;;;;;;;10.20;9.30;;;17.60;99.90;;;;;;4946089;29;20199;-80
2021/06/13 04:33:42;;;;;;;9.77;8.90;;;17.60;99.90;;;;;;4942389;28;20214;-76
2021/06/13 04:36:10;;;;;;;9.23;8.33;;;17.70;99.90;;;;;;4945071;28;20677;-76
2021/06/13 04:38:37;;;;;;;9.40;8.70;;;17.70;99.90;;;;;;4945247;28;20233;-76
2021/06/13 04:41:05;;;;;;;10.17;9.27;;;17.80;99.90;;;;;;4947310;28;20201;-76
2021/06/13 04:43:33;;;;;;;9.80;9.00;;;17.80;99.90;;;;;;4944657;28;20261;-76
2021/06/13 04:46:00;;;;;;;9.57;8.77;;;17.90;99.90;;;;;;4943575;29;20263;-76
2021/06/13 04:48:28;;;;;;;9.30;8.50;;;18.00;99.90;;;;;;4945059;28;20220;-76
2021/06/13 04:50:59;;;;;;;9.67;8.77;;;18.40;99.90;;;;;;4940106;28;20205;-76
2021/06/13 04:53:51;;;;;;;9.60;8.80;;;19.00;99.90;;;;;;4940727;29;20747;-76
2021/06/13 04:56:27;;;;;;;9.53;8.57;;;19.40;99.90;;;;;;4945432;29;20261;-77
2021/06/13 04:58:54;;;;;;;8.50;7.77;;;19.50;99.90;;;;;;4936157;29;20277;-76
2021/06/13 05:01:21;;;;;;;8.60;7.80;;;19.60;99.90;;;;;;4943780;29;20695;-76
2021/06/13 05:03:49;;;;;;;9.17;8.27;;;19.50;99.90;;;;;;4939893;28;20719;-76
2021/06/13 05:06:16;;;;;;;8.33;7.57;;;19.40;99.90;;;;;;4944098;28;20211;-76
2021/06/13 05:20:04;;;;;;;8.10;7.50;;;19.50;99.90;;;;;;4928249;29;20206;-78
2021/06/13 05:42:10;;;;;;;5.03;4.17;;;20.90;99.90;;;;;;4781679;29;20216;-77
2021/06/13 05:53:00;;;;;;;6.10;4.03;;;23.20;99.90;;;;;;4920278;28;20730;-79
2021/06/13 06:06:22;;;;;;;6.20;5.53;;;24.40;99.90;;;;;;4837320;29;20270;-80
2021/06/13 06:24:58;;;;;;;8.30;3.93;;;24.00;99.90;;;;;;4820686;29;20214;-80
2021/06/13 06:35:08;;;;;;;5.90;3.63;;;25.10;99.90;;;;;;4961182;28;20300;-81
2021/06/13 06:48:34;;;;;;;6.33;5.60;;;25.40;99.90;;;;;;1025700;23;21326;-80
2021/06/13 06:54:40;;;;;;;6.23;5.63;;;24.90;99.90;;;;;;4865389;29;20303;-81
2021/06/13 07:07:47;;;;;;;6.43;3.83;;;25.30;99.90;;;;;;4931107;23;20228;-79
2021/06/13 07:13:29;;;;;;;6.30;4.27;;;25.60;98.50;;;;;;4966966;28;20710;-79
2021/06/13 07:16:14;;;;;;;8.40;5.30;;;25.70;99.30;;;;;;4979298;28;20256;-80
2021/06/13 07:18:43;;;;;;;8.70;4.90;;;25.60;99.50;;;;;;5036770;23;20298;-81
2021/06/13 07:21:36;;;;;;;6.20;3.77;;;25.20;99.30;;;;;;4957526;28;20207;-79
2021/06/13 07:24:39;;;;;;;6.03;3.70;;;25.30;98.90;;;;;;4957513;29;20226;-80
2021/06/13 07:27:26;;;;;;;5.93;5.33;;;25.70;98.90;;;;;;4957216;28;20246;-79
2021/06/13 07:30:03;;;;;;;5.00;3.33;;;25.80;99.90;;;;;;4953264;29;20210;-79
2021/06/13 07:35:26;;;;;;;5.57;3.30;;;26.00;98.20;;;;;;4958896;28;20198;-79
2021/06/13 07:38:01;;;;;;;5.30;4.80;;;26.30;98.40;;;;;;4949348;29;20218;-79
2021/06/13 07:43:34;;;;;;;8.90;5.93;;;26.80;97.10;;;;;;4958125;28;20207;-79
2021/06/13 07:46:11;;;;;;;6.20;5.60;;;27.10;96.80;;;;;;4959017;29;20305;-79
2021/06/13 07:48:41;;;;;;;5.97;5.30;;;27.40;97.40;;;;;;4953549;28;20229;-80
2021/06/13 07:51:44;;;;;;;6.63;5.67;;;27.50;96.30;;;;;;4948351;28;20588;-80
2021/06/13 07:55:05;;;;;;;6.00;5.40;;;27.70;96.60;;;;;;4956353;29;20283;-80
2021/06/13 07:58:14;;;;;;;7.83;5.60;;;27.60;95.90;;;;;;4953931;29;20237;-80
2021/06/13 08:00:45;;;;;;;6.40;5.50;;;27.50;96.20;;;;;;4958881;29;20221;-79
2021/06/13 08:03:21;;;;;;;6.20;5.60;;;27.70;96.10;;;;;;4947099;29;20297;-79
2021/06/13 08:05:48;;;;;;;10.33;5.73;;;27.00;95.70;;;;;;4944331;29;20195;-78
2021/06/13 08:08:26;;;;;;;7.43;6.47;;;26.20;96.20;;;;;;4955940;29;20223;-79
2021/06/13 08:10:56;;;;;;;7.40;6.70;;;26.50;97.70;;;;;;4952376;28;20269;-79
2021/06/13 08:13:25;;;;;;;6.97;6.30;;;26.50;96.40;;;;;;4954997;28;20202;-78
2021/06/13 08:15:57;;;;;;;7.40;6.67;;;26.20;97.10;;;;;;4967887;28;20203;-79
2021/06/13 08:18:44;;;;;;;7.77;6.50;;;25.60;97.20;;;;;;4951855;28;20230;-78
2021/06/13 08:21:21;;;;;;;7.70;6.10;;;25.50;98.30;;;;;;4967498;28;20580;-77
2021/06/13 08:23:48;;;;;;;7.10;5.80;;;26.00;97.80;;;;;;4940795;29;20688;-79
2021/06/13 08:26:16;;;;;;;9.60;6.50;;;26.40;97.10;;;;;;4957725;28;20211;-79
2021/06/13 08:29:04;;;;;;;8.40;6.03;;;26.10;97.00;;;;;;4954991;29;20218;-80
2021/06/13 08:31:34;;;;;;;7.30;6.17;;;26.40;96.50;;;;;;4943312;28;20218;-79
2021/06/13 08:34:09;;;;;;;6.50;5.90;;;26.40;97.30;;;;;;4952826;28;20245;-79
2021/06/13 08:36:46;;;;;;;7.23;6.53;;;26.50;96.00;;;;;;4957168;29;20650;-79
2021/06/13 08:39:13;;;;;;;7.63;6.83;;;26.20;96.60;;;;;;4957014;28;20722;-78
2021/06/13 08:41:42;;;;;;;6.40;5.53;;;26.00;95.50;;;;;;4957864;29;20203;-79
2021/06/13 08:57:39;;;;;;;6.50;5.63;;;26.20;97.40;;;;;;5161424;22;20570;-80
2021/06/13 09:00:18;;;;;;;7.50;5.90;;;27.00;95.50;;;;;;5093149;28;20188;-79
2021/06/13 09:02:48;;;;;;;6.53;5.90;;;27.20;95.10;;;;;;5076742;28;20239;-80
2021/06/13 09:05:31;;;;;;;9.37;6.13;;;27.30;94.50;;;;;;5081683;28;20710;-79
2021/06/13 09:10:53;;;;;;;8.10;5.67;;;27.00;95.30;;;;;;5078914;28;20744;-80
2021/06/13 09:13:34;;;;;;;6.17;5.50;;;26.60;95.40;;;;;;5057652;28;20564;-79
2021/06/13 09:16:12;;;;;;;7.13;6.33;;;27.00;95.50;;;;;;5062358;28;20191;-79
2021/06/13 09:18:47;;;;;;;6.30;5.80;;;27.00;95.50;;;;;;5063115;28;20711;-80
2021/06/13 09:21:36;;;;;;;6.37;5.77;;;26.80;94.80;;;;;;5056966;28;20194;-79
2021/06/13 09:24:30;;;;;;;9.53;5.50;;;27.00;95.60;;;;;;5085087;28;20202;-80
2021/06/13 09:27:10;;;;;;;6.57;5.70;;;27.20;94.90;;;;;;5079786;28;20283;-80
2021/06/13 09:29:58;;;;;;;6.37;5.63;;;27.60;94.40;;;;;;5073013;28;20269;-80
2021/06/13 09:32:36;;;;;;;7.03;5.83;;;27.90;93.90;;;;;;5077822;28;20204;-80
2021/06/13 09:35:22;;;;;;;8.13;6.10;;;28.20;93.70;;;;;;5065451;28;20242;-80
2021/06/13 09:38:13;;;;;;;7.37;6.63;;;28.40;93.50;;;;;;5066626;28;20672;-79
2021/06/13 09:40:58;;;;;;;6.73;6.10;;;28.20;93.00;;;;;;5079304;28;20205;-80
2021/06/13 09:43:34;;;;;;;6.60;6.00;;;28.50;93.50;;;;;;5062341;28;20588;-80
2021/06/13 09:46:16;;;;;;;6.60;6.00;;;28.50;93.00;;;;;;5077371;28;20218;-80
2021/06/13 09:48:50;;;;;;;9.43;6.13;;;28.90;92.50;;;;;;5090507;22;20250;-80
2021/06/13 09:51:29;;;;;;;7.40;6.20;;;28.60;92.10;;;;;;5066289;28;20236;-80
2021/06/13 09:54:06;;;;;;;7.63;5.60;;;28.40;92.20;;;;;;5060973;28;20230;-80
2021/06/13 09:56:44;;;;;;;6.53;5.70;;;27.80;92.90;;;;;;5059862;28;20225;-79
2021/06/13 09:59:20;;;;;;;6.90;6.27;;;27.40;93.30;;;;;;5034464;28;20223;-80
2021/06/13 10:01:53;;;;;;;7.40;5.50;;;27.20;93.40;;;;;;5028316;28;20246;-79
2021/06/13 10:04:33;;;;;;;10.07;5.50;;;27.20;93.80;;;;;;5034428;28;20208;-80
2021/06/13 10:07:30;;;;;;;5.93;5.40;;;26.60;93.30;;;;;;5023377;28;20220;-80
2021/06/13 10:10:03;;;;;;;6.43;5.20;;;26.30;93.90;;;;;;5048628;28;20204;-80
2021/06/13 10:12:38;;;;;;;5.70;5.10;;;26.40;94.10;;;;;;5034181;28;20211;-80
2021/06/13 10:15:15;;;;;;;4.60;4.10;;;26.40;93.80;;;;;;5031561;28;20254;-79
2021/06/13 10:17:51;;;;;;;5.90;4.57;;;27.00;93.60;;;;;;5029475;28;20230;-79
2021/06/13 10:20:28;;;;;;;6.70;4.90;;;27.00;93.60;;;;;;5023147;28;20200;-80
2021/06/13 10:23:36;;;;;;;5.23;4.70;;;26.90;93.10;;;;;;5024275;28;20584;-81
2021/06/13 10:30:06;;;;;;;8.27;4.90;;;26.70;94.10;;;;;;5106787;22;20237;-81
2021/06/13 10:39:41;;;;;;;6.37;5.77;;;26.70;93.60;;;;;;5124402;23;20229;-81
2021/06/13 10:42:15;;;;;;;6.43;5.83;;;26.70;94.50;;;;;;5061754;28;20691;-81
2021/06/13 10:48:58;;;;;;;5.87;5.47;;;25.80;95.70;;;;;;5261592;22;20256;-81
2021/06/13 10:52:24;;;;;;;6.40;5.80;;;25.70;95.30;;;;;;5036128;28;20203;-80
2021/06/13 10:55:15;;;;;;;6.97;6.07;;;25.80;94.60;;;;;;5028887;28;20209;-81
2021/06/13 11:02:08;;;;;;;;;;;;;;;;;;;;;
2021/06/13 11:07:57;;;;;;;5.93;5.33;;;24.70;96.40;;;;;;5047945;22;20302;-75
2021/06/13 11:10:32;;;;;;;6.60;5.83;;;24.60;95.90;;;;;;5027077;28;20674;-77
2021/06/13 11:13:09;;;;;;;7.43;5.83;;;24.70;95.00;;;;;;5043410;28;20211;-77
2021/06/13 11:15:46;;;;;;;6.30;5.70;;;24.70;95.80;;;;;;5018377;28;20216;-77
2021/06/13 11:18:22;;;;;;;6.00;5.40;;;24.80;96.40;;;;;;5011314;28;20250;-76
2021/06/13 11:20:54;;;;;;;7.30;6.20;;;24.90;96.50;;;;;;5024390;28;20265;-78
2021/06/13 11:23:44;;;;;;;5.87;5.37;;;24.90;97.40;;;;;;5031066;28;20199;-77
2021/06/13 11:26:37;;;;;;;5.30;4.90;;;25.00;96.40;;;;;;5026978;28;20212;-77
2021/06/13 11:29:06;;;;;;;9.67;5.77;;;24.90;95.10;;;;;;5030733;28;20275;-77
2021/06/13 11:31:33;;;;;;;6.93;5.67;;;24.40;95.00;;;;;;5028812;28;20215;-78
2021/06/13 11:34:07;;;;;;;20.53;10.70;;;24.30;95.80;;;;;;5040253;28;20200;-76
2021/06/13 11:36:38;;;;;;;24.80;12.07;;;24.20;94.40;;;;;;5042632;28;20682;-77
2021/06/13 11:39:29;;;;;;;15.97;9.83;;;24.20;95.10;;;;;;5018793;28;20226;-76
2021/06/13 11:42:11;;;;;;;6.17;5.57;;;24.20;94.50;;;;;;5000785;28;20259;-77
2021/06/13 11:44:42;;;;;;;5.80;5.30;;;24.10;95.40;;;;;;5033283;28;20292;-77
2021/06/13 11:47:32;;;;;;;7.27;5.37;;;24.20;96.40;;;;;;5031092;28;20694;-77
2021/06/13 11:50:00;;;;;;;7.50;6.30;;;24.00;93.80;;;;;;5030999;28;20318;-76
2021/06/13 11:53:00;;;;;;;7.67;6.87;;;24.00;95.30;;;;;;5033521;28;20196;-76
2021/06/13 11:56:02;;;;;;;6.53;5.83;;;23.90;94.30;;;;;;5034029;28;20577;-76
2021/06/13 11:58:33;;;;;;;6.87;5.60;;;24.00;94.80;;;;;;5034352;28;20211;-76
2021/06/13 12:01:01;;;;;;;6.10;5.60;;;23.80;93.50;;;;;;5015451;28;20219;-76
2021/06/13 12:03:29;;;;;;;6.10;5.60;;;23.70;94.10;;;;;;5033566;28;20200;-76
2021/06/13 12:06:06;;;;;;;3.37;3.07;;;23.70;94.70;;;;;;5020742;28;20257;-76
2021/06/13 12:08:42;;;;;;;4.03;3.43;;;23.70;95.10;;;;;;5006165;28;20235;-78
2021/06/13 12:11:08;;;;;;;4.83;3.10;;;23.70;94.10;;;;;;5015888;28;20201;-77
2021/06/13 12:13:35;;;;;;;4.33;3.10;;;23.80;94.40;;;;;;5042006;28;20191;-76
2021/06/13 12:16:16;;;;;;;5.40;3.00;;;23.80;93.70;;;;;;5032281;28;20196;-77
2021/06/13 12:18:42;;;;;;;4.17;3.83;;;23.80;93.90;;;;;;5043534;28;20610;-77
2021/06/13 12:21:09;;;;;;;6.00;5.40;;;24.00;93.70;;;;;;5013124;28;20196;-77
2021/06/13 12:23:40;;;;;;;6.40;5.30;;;23.80;93.20;;;;;;5043503;28;20210;-76
2021/06/13 12:29:01;;;;;;;4.03;2.73;;;24.00;93.50;;;;;;5037336;28;20707;-77
2021/06/13 12:31:30;;;;;;;4.67;2.50;;;24.10;94.00;;;;;;5021690;28;20222;-77
2021/06/13 12:33:57;;;;;;;3.20;2.57;;;23.80;93.00;;;;;;5036238;28;20222;-75
2021/06/13 12:36:24;;;;;;;2.83;2.07;;;23.80;92.40;;;;;;5040778;28;20187;-78
2021/06/13 12:38:52;;;;;;;3.70;2.33;;;23.70;92.90;;;;;;5033336;28;20218;-76
2021/06/13 12:41:23;;;;;;;2.67;2.40;;;23.60;92.20;;;;;;5019466;28;20684;-75
2021/06/13 12:43:50;;;;;;;3.30;2.80;;;23.60;93.40;;;;;;5033306;28;20680;-76
2021/06/13 12:46:17;;;;;;;4.57;3.10;;;23.70;92.70;;;;;;5038342;28;20767;-76
2021/06/13 12:48:45;;;;;;;4.53;2.63;;;23.70;92.10;;;;;;5012350;28;20226;-76
2021/06/13 12:51:13;;;;;;;2.93;2.73;;;23.80;93.00;;;;;;5006366;28;20231;-77
2021/06/13 12:53:43;;;;;;;4.17;2.67;;;23.90;92.10;;;;;;5025455;28;20267;-77
2021/06/13 12:56:12;;;;;;;3.13;2.73;;;24.00;91.70;;;;;;5027105;28;20216;-76
2021/06/13 12:58:42;;;;;;;3.77;2.50;;;23.80;92.10;;;;;;5035277;28;20713;-76
2021/06/13 13:01:12;;;;;;;2.53;2.33;;;23.70;91.30;;;;;;5012519;28;20207;-76
2021/06/13 13:03:43;;;;;;;2.73;2.27;;;23.60;91.20;;;;;;5038186;28;20207;-76
2021/06/13 13:06:11;;;;;;;2.87;2.20;;;23.70;90.30;;;;;;5034791;28;20204;-76
2021/06/13 13:08:42;;;;;;;2.83;2.20;;;23.70;91.00;;;;;;5039018;28;20230;-76
2021/06/13 13:11:11;;;;;;;3.53;2.70;;;23.70;91.40;;;;;;5040021;28;20203;-76
2021/06/13 13:13:42;;;;;;;3.77;2.97;;;23.70;91.20;;;;;;5040656;28;20196;-75
2021/06/13 13:16:20;;;;;;;3.37;2.77;;;23.70;90.20;;;;;;5034476;28;20296;-76
2021/06/13 13:18:48;;;;;;;2.93;2.50;;;23.60;91.40;;;;;;5037258;28;20245;-76
2021/06/13 13:21:15;;;;;;;2.97;2.60;;;23.60;91.30;;;;;;5035635;28;20199;-76
2021/06/13 13:23:43;;;;;;;3.20;2.90;;;23.60;92.10;;;;;;5024070;28;20202;-76
2021/06/13 13:26:10;;;;;;;2.20;2.00;;;23.60;90.30;;;;;;5025099;28;20201;-75
2021/06/13 13:28:41;;;;;;;3.57;2.90;;;23.60;89.90;;;;;;5025507;28;20208;-76
2021/06/13 13:31:19;;;;;;;3.53;2.70;;;23.60;91.40;;;;;;5039004;28;20266;-77
2021/06/13 13:33:54;;;;;;;3.30;2.80;;;23.60;90.10;;;;;;5048799;28;20199;-76
2021/06/13 13:36:35;;;;;;;2.80;2.60;;;23.60;89.30;;;;;;5045381;28;20213;-76
2021/06/13 13:39:18;;;;;;;2.73;2.53;;;23.60;88.10;;;;;;5038997;28;20736;-76
2021/06/13 13:41:46;;;;;;;3.50;2.97;;;23.60;90.20;;;;;;5005882;28;20196;-76
2021/06/13 13:44:21;;;;;;;4.53;2.77;;;23.40;89.20;;;;;;5033098;28;20200;-76
2021/06/13 13:46:48;;;;;;;2.60;2.40;;;23.50;90.90;;;;;;5028685;28;20214;-76
2021/06/13 13:49:20;;;;;;;3.73;2.30;;;23.60;90.90;;;;;;5007963;28;20224;-77
2021/06/13 13:51:49;;;;;;;3.70;3.17;;;23.60;88.30;;;;;;5042173;28;20303;-76
2021/06/13 13:54:24;;;;;;;2.80;2.07;;;23.60;87.00;;;;;;5035455;28;20294;-75
2021/06/13 13:56:53;;;;;;;4.87;4.57;;;23.60;86.90;;;;;;5032470;28;20203;-77
2021/06/13 13:59:21;;;;;;;5.27;4.87;;;23.60;86.50;;;;;;5017998;28;20237;-76
2021/06/13 14:01:48;;;;;;;5.30;4.90;;;23.60;85.90;;;;;;5036067;28;20210;-76
2021/06/13 14:04:15;;;;;;;5.20;4.80;;;23.70;88.30;;;;;;5030632;28;20707;-77
2021/06/13 14:06:41;;;;;;;4.90;4.60;;;23.70;86.60;;;;;;5013531;28;20211;-76
2021/06/13 14:09:08;;;;;;;4.83;4.37;;;23.70;86.50;;;;;;5039705;28;20576;-77
2021/06/13 14:11:36;;;;;;;4.90;4.50;;;23.50;86.10;;;;;;5049101;28;20191;-77
2021/06/13 14:14:03;;;;;;;5.17;4.67;;;23.60;86.40;;;;;;5030675;28;20265;-77
2021/06/13 14:16:31;;;;;;;5.10;4.70;;;23.50;87.10;;;;;;5045060;28;20210;-76
2021/06/13 14:18:58;;;;;;;7.17;4.50;;;23.60;85.90;;;;;;5044752;28;20223;-75
2021/06/13 14:21:26;;;;;;;5.37;4.50;;;23.50;85.30;;;;;;5039075;28;20200;-77
2021/06/13 14:23:53;;;;;;;5.17;4.77;;;23.40;84.20;;;;;;5025265;28;20192;-77
2021/06/13 14:26:19;;;;;;;5.30;4.90;;;23.40;86.30;;;;;;5042631;28;20258;-77
2021/06/13 14:28:46;;;;;;;4.83;4.40;;;23.40;87.20;;;;;;5035927;28;20593;-76
2021/06/13 14:31:14;;;;;;;5.17;4.80;;;23.40;85.70;;;;;;5026001;28;20195;-76
2021/06/13 14:33:42;;;;;;;5.57;5.13;;;23.40;86.00;;;;;;5039133;28;20204;-76
2021/06/13 14:36:10;;;;;;;5.57;5.07;;;23.60;88.90;;;;;;5022331;28;20565;-76
2021/06/13 14:38:37;;;;;;;4.83;4.43;;;23.60;87.40;;;;;;5036521;28;20721;-75
2021/06/13 14:41:04;;;;;;;5.00;4.60;;;23.60;85.80;;;;;;5011916;28;20204;-76
2021/06/13 14:43:31;;;;;;;4.60;4.30;;;23.60;85.90;;;;;;5035593;28;20195;-77
2021/06/13 14:45:58;;;;;;;4.80;4.50;;;23.60;85.00;;;;;;5037523;28;20231;-76
2021/06/13 14:48:25;;;;;;;4.63;4.27;;;23.50;85.30;;;;;;5039002;28;20219;-77
2021/06/13 14:50:54;;;;;;;5.10;4.77;;;23.50;85.30;;;;;;5039193;28;20196;-77
2021/06/13 14:53:21;;;;;;;5.10;4.70;;;23.50;86.40;;;;;;5028239;28;20258;-76
2021/06/13 14:55:48;;;;;;;4.90;4.60;;;23.50;87.10;;;;;;5042240;28;20195;-76
2021/06/13 14:58:15;;;;;;;5.10;4.60;;;23.50;88.00;;;;;;5019460;28;20240;-75
2021/06/13 15:00:44;;;;;;;5.80;5.17;;;23.50;87.70;;;;;;5017432;28;20202;-76
2021/06/13 15:03:11;;;;;;;5.20;4.70;;;23.50;89.60;;;;;;5010951;28;20204;-76
2021/06/13 15:05:38;;;;;;;5.07;4.67;;;23.50;88.00;;;;;;5036132;28;20210;-78
2021/06/13 15:08:07;;;;;;;5.37;4.83;;;23.50;88.90;;;;;;5016568;28;20608;-76
2021/06/13 15:10:34;;;;;;;5.37;4.83;;;23.50;89.70;;;;;;5026340;28;20203;-76
2021/06/13 15:13:00;;;;;;;4.63;4.23;;;23.40;88.40;;;;;;5032177;28;20669;-77
2021/06/13 15:15:28;;;;;;;5.30;4.80;;;23.40;89.90;;;;;;5034675;28;20195;-77
2021/06/13 15:17:55;;;;;;;7.10;6.20;;;23.40;88.70;;;;;;5037083;28;20195;-77
2021/06/13 15:20:22;;;;;;;7.37;5.30;;;23.40;89.90;;;;;;5040371;28;20218;-77
2021/06/13 15:22:49;;;;;;;5.57;4.63;;;23.30;90.50;;;;;;5018961;28;20223;-76
2021/06/13 15:25:17;;;;;;;4.57;4.27;;;23.30;90.30;;;;;;5036939;28;20213;-77
2021/06/13 15:27:46;;;;;;;5.53;5.03;;;23.40;90.90;;;;;;5034017;28;20207;-76
2021/06/13 15:30:13;;;;;;;5.00;4.60;;;23.40;90.00;;;;;;5016815;28;20226;-77
2021/06/13 15:32:41;;;;;;;4.83;4.43;;;23.40;90.10;;;;;;5020280;28;20199;-76
2021/06/13 15:35:09;;;;;;;4.90;4.50;;;23.40;89.50;;;;;;5042644;28;20248;-76
2021/06/13 15:37:36;;;;;;;5.27;4.87;;;23.40;90.10;;;;;;5018472;28;20255;-76
2021/06/13 15:40:05;;;;;;;5.47;4.97;;;23.50;90.20;;;;;;5017418;28;20224;-77
2021/06/13 15:42:33;;;;;;;5.20;4.80;;;23.50;90.10;;;;;;5014140;28;20266;-76